sensor_id;sensor_type;location;lat;lon;timestamp;temperature;humidity
12156;DHT22;6141;49.092;8.516;2023-03-14T00:02:03;12.70;76.40
12156;DHT22;6141;49.092;8.516;2023-03-14T00:04:31;12.70;76.00
12156;DHT22;6141;49.092;8.516;2023-03-14T00:06:59;12.70;76.10
12156;DHT22;6141;49.092;8.516;2023-03-14T00:09:27;12.70;76.60
12156;DHT22;6141;49.092;8.516;2023-03-14T00:11:56;12.80;75.90
12156;DHT22;6141;49.092;8.516;2023-03-14T00:14:26;12.90;75.90
12156;DHT22;6141;49.092;8.516;2023-03-14T00:16:54;12.90;76.20
12156;DHT22;6141;49.092;8.516;2023-03-14T00:19:22;12.90;76.10
12156;DHT22;6141;49.092;8.516;2023-03-14T00:21:50;12.90;75.10
12156;DHT22;6141;49.092;8.516;2023-03-14T00:24:18;12.80;76.30
12156;DHT22;6141;49.092;8.516;2023-03-14T00:26:47;12.80;76.70
12156;DHT22;6141;49.092;8.516;2023-03-14T00:29:15;12.80;76.80
12156;DHT22;6141;49.092;8.516;2023-03-14T00:31:46;12.80;76.70
12156;DHT22;6141;49.092;8.516;2023-03-14T00:34:14;12.80;76.90
12156;DHT22;6141;49.092;8.516;2023-03-14T00:36:42;12.80;77.40
12156;DHT22;6141;49.092;8.516;2023-03-14T00:39:12;12.80;76.90
12156;DHT22;6141;49.092;8.516;2023-03-14T00:41:40;13.00;76.80
12156;DHT22;6141;49.092;8.516;2023-03-14T00:44:08;12.90;76.40
12156;DHT22;6141;49.092;8.516;2023-03-14T00:46:36;13.00;76.10
12156;DHT22;6141;49.092;8.516;2023-03-14T00:49:08;12.90;76.30
12156;DHT22;6141;49.092;8.516;2023-03-14T00:51:36;12.90;76.50
12156;DHT22;6141;49.092;8.516;2023-03-14T00:54:04;13.00;76.10
12156;DHT22;6141;49.092;8.516;2023-03-14T00:56:33;13.00;76.70
12156;DHT22;6141;49.092;8.516;2023-03-14T00:59:01;13.00;76.40
12156;DHT22;6141;49.092;8.516;2023-03-14T01:01:29;13.10;76.50
12156;DHT22;6141;49.092;8.516;2023-03-14T01:03:58;13.00;75.80
12156;DHT22;6141;49.092;8.516;2023-03-14T01:06:28;13.10;76.10
12156;DHT22;6141;49.092;8.516;2023-03-14T01:08:57;13.20;75.40
12156;DHT22;6141;49.092;8.516;2023-03-14T01:11:29;13.20;75.30
12156;DHT22;6141;49.092;8.516;2023-03-14T01:13:58;13.10;76.30
12156;DHT22;6141;49.092;8.516;2023-03-14T01:16:28;13.00;76.70
12156;DHT22;6141;49.092;8.516;2023-03-14T01:19:00;12.90;77.70
12156;DHT22;6141;49.092;8.516;2023-03-14T01:21:32;12.90;78.30
12156;DHT22;6141;49.092;8.516;2023-03-14T01:24:02;12.90;78.50
12156;DHT22;6141;49.092;8.516;2023-03-14T01:26:34;12.80;78.40
12156;DHT22;6141;49.092;8.516;2023-03-14T01:29:04;12.80;78.80
12156;DHT22;6141;49.092;8.516;2023-03-14T01:31:35;12.80;78.80
12156;DHT22;6141;49.092;8.516;2023-03-14T01:34:04;12.70;78.80
12156;DHT22;6141;49.092;8.516;2023-03-14T01:36:34;12.70;78.80
12156;DHT22;6141;49.092;8.516;2023-03-14T01:39:02;12.70;78.80
12156;DHT22;6141;49.092;8.516;2023-03-14T01:41:33;12.70;78.40
12156;DHT22;6141;49.092;8.516;2023-03-14T01:44:02;12.70;78.80
12156;DHT22;6141;49.092;8.516;2023-03-14T01:46:36;12.70;78.10
12156;DHT22;6141;49.092;8.516;2023-03-14T01:49:15;12.70;78.80
12156;DHT22;6141;49.092;8.516;2023-03-14T01:51:56;12.80;78.90
12156;DHT22;6141;49.092;8.516;2023-03-14T01:54:30;12.90;79.40
12156;DHT22;6141;49.092;8.516;2023-03-14T01:57:04;12.80;81.20
12156;DHT22;6141;49.092;8.516;2023-03-14T01:59:35;12.80;81.00
12156;DHT22;6141;49.092;8.516;2023-03-14T02:02:06;12.80;81.20
12156;DHT22;6141;49.092;8.516;2023-03-14T02:04:35;12.70;81.50
12156;DHT22;6141;49.092;8.516;2023-03-14T02:07:10;12.70;81.40
12156;DHT22;6141;49.092;8.516;2023-03-14T02:09:46;12.50;81.50
12156;DHT22;6141;49.092;8.516;2023-03-14T02:12:22;12.60;82.20
12156;DHT22;6141;49.092;8.516;2023-03-14T02:15:14;12.70;81.20
12156;DHT22;6141;49.092;8.516;2023-03-14T02:18:12;12.60;81.00
12156;DHT22;6141;49.092;8.516;2023-03-14T02:21:23;12.50;81.70
12156;DHT22;6141;49.092;8.516;2023-03-14T02:23:58;12.30;82.10
12156;DHT22;6141;49.092;8.516;2023-03-14T02:26:35;12.30;82.40
12156;DHT22;6141;49.092;8.516;2023-03-14T02:29:05;12.30;81.90
12156;DHT22;6141;49.092;8.516;2023-03-14T02:31:34;12.30;81.80
12156;DHT22;6141;49.092;8.516;2023-03-14T02:34:03;12.30;81.90
12156;DHT22;6141;49.092;8.516;2023-03-14T02:36:33;12.20;82.00
12156;DHT22;6141;49.092;8.516;2023-03-14T02:39:08;12.10;82.30
12156;DHT22;6141;49.092;8.516;2023-03-14T02:41:41;12.10;82.50
12156;DHT22;6141;49.092;8.516;2023-03-14T02:44:14;12.10;82.00
12156;DHT22;6141;49.092;8.516;2023-03-14T02:46:42;12.10;80.90
12156;DHT22;6141;49.092;8.516;2023-03-14T02:49:12;12.10;81.40
12156;DHT22;6141;49.092;8.516;2023-03-14T02:51:43;12.20;80.80
12156;DHT22;6141;49.092;8.516;2023-03-14T02:54:13;12.20;80.50
12156;DHT22;6141;49.092;8.516;2023-03-14T02:56:43;12.10;80.10
12156;DHT22;6141;49.092;8.516;2023-03-14T02:59:14;12.10;80.50
12156;DHT22;6141;49.092;8.516;2023-03-14T03:01:52;12.10;80.60
12156;DHT22;6141;49.092;8.516;2023-03-14T03:04:20;12.10;80.00
12156;DHT22;6141;49.092;8.516;2023-03-14T03:06:50;12.10;80.20
12156;DHT22;6141;49.092;8.516;2023-03-14T03:09:18;12.10;80.00
12156;DHT22;6141;49.092;8.516;2023-03-14T03:11:47;12.00;79.60
12156;DHT22;6141;49.092;8.516;2023-03-14T03:14:21;12.10;79.70
12156;DHT22;6141;49.092;8.516;2023-03-14T03:16:53;12.10;79.10
12156;DHT22;6141;49.092;8.516;2023-03-14T03:19:31;12.10;78.60
12156;DHT22;6141;49.092;8.516;2023-03-14T03:22:09;12.00;79.00
12156;DHT22;6141;49.092;8.516;2023-03-14T03:24:50;12.00;79.00
12156;DHT22;6141;49.092;8.516;2023-03-14T03:27:21;11.90;78.70
12156;DHT22;6141;49.092;8.516;2023-03-14T03:29:50;11.90;78.10
12156;DHT22;6141;49.092;8.516;2023-03-14T03:32:18;11.90;78.10
12156;DHT22;6141;49.092;8.516;2023-03-14T03:34:47;12.00;78.10
12156;DHT22;6141;49.092;8.516;2023-03-14T03:37:15;12.00;76.60
12156;DHT22;6141;49.092;8.516;2023-03-14T03:39:44;11.90;77.30
12156;DHT22;6141;49.092;8.516;2023-03-14T03:42:12;11.90;78.00
12156;DHT22;6141;49.092;8.516;2023-03-14T03:44:41;11.90;76.90
12156;DHT22;6141;49.092;8.516;2023-03-14T03:47:12;11.90;77.20
12156;DHT22;6141;49.092;8.516;2023-03-14T03:49:40;11.90;76.10
12156;DHT22;6141;49.092;8.516;2023-03-14T03:52:10;11.90;76.10
12156;DHT22;6141;49.092;8.516;2023-03-14T03:54:38;12.00;75.80
12156;DHT22;6141;49.092;8.516;2023-03-14T03:57:07;11.90;75.70
12156;DHT22;6141;49.092;8.516;2023-03-14T03:59:35;11.90;75.20
12156;DHT22;6141;49.092;8.516;2023-03-14T04:02:05;11.80;75.20
12156;DHT22;6141;49.092;8.516;2023-03-14T04:04:35;11.80;74.80
12156;DHT22;6141;49.092;8.516;2023-03-14T04:07:05;11.90;74.90
12156;DHT22;6141;49.092;8.516;2023-03-14T04:09:33;11.90;74.00
12156;DHT22;6141;49.092;8.516;2023-03-14T04:12:18;11.90;74.40
12156;DHT22;6141;49.092;8.516;2023-03-14T04:15:00;11.90;73.90
12156;DHT22;6141;49.092;8.516;2023-03-14T04:17:29;11.90;73.60
12156;DHT22;6141;49.092;8.516;2023-03-14T04:19:59;11.80;73.40
12156;DHT22;6141;49.092;8.516;2023-03-14T04:22:34;11.80;72.40
12156;DHT22;6141;49.092;8.516;2023-03-14T04:25:02;11.70;72.70
12156;DHT22;6141;49.092;8.516;2023-03-14T04:27:34;11.70;72.70
12156;DHT22;6141;49.092;8.516;2023-03-14T04:30:08;11.70;72.70
12156;DHT22;6141;49.092;8.516;2023-03-14T04:32:48;11.70;72.10
12156;DHT22;6141;49.092;8.516;2023-03-14T04:35:20;11.70;71.70
12156;DHT22;6141;49.092;8.516;2023-03-14T04:37:49;11.70;71.70
12156;DHT22;6141;49.092;8.516;2023-03-14T04:40:20;11.60;71.80
12156;DHT22;6141;49.092;8.516;2023-03-14T04:42:50;11.70;70.80
12156;DHT22;6141;49.092;8.516;2023-03-14T04:45:19;11.70;71.20
12156;DHT22;6141;49.092;8.516;2023-03-14T04:47:47;11.70;71.80
12156;DHT22;6141;49.092;8.516;2023-03-14T04:50:19;11.60;71.30
12156;DHT22;6141;49.092;8.516;2023-03-14T04:52:48;11.60;71.90
12156;DHT22;6141;49.092;8.516;2023-03-14T04:55:16;11.60;71.80
12156;DHT22;6141;49.092;8.516;2023-03-14T04:57:45;11.60;71.80
12156;DHT22;6141;49.092;8.516;2023-03-14T05:00:13;11.60;72.30
12156;DHT22;6141;49.092;8.516;2023-03-14T05:03:08;11.60;72.10
12156;DHT22;6141;49.092;8.516;2023-03-14T05:05:56;11.60;72.30
12156;DHT22;6141;49.092;8.516;2023-03-14T05:09:00;11.60;71.80
12156;DHT22;6141;49.092;8.516;2023-03-14T05:11:48;11.80;71.10
12156;DHT22;6141;49.092;8.516;2023-03-14T05:14:41;11.70;71.70
12156;DHT22;6141;49.092;8.516;2023-03-14T05:17:12;11.80;70.80
12156;DHT22;6141;49.092;8.516;2023-03-14T05:19:47;11.80;71.40
12156;DHT22;6141;49.092;8.516;2023-03-14T05:22:32;11.80;71.80
12156;DHT22;6141;49.092;8.516;2023-03-14T05:25:03;11.80;71.50
12156;DHT22;6141;49.092;8.516;2023-03-14T05:27:37;11.80;71.40
12156;DHT22;6141;49.092;8.516;2023-03-14T05:30:28;11.80;71.80
12156;DHT22;6141;49.092;8.516;2023-03-14T05:33:16;11.80;70.70
12156;DHT22;6141;49.092;8.516;2023-03-14T05:36:04;11.80;70.80
12156;DHT22;6141;49.092;8.516;2023-03-14T05:38:52;11.80;71.60
12156;DHT22;6141;49.092;8.516;2023-03-14T05:41:38;11.80;71.10
12156;DHT22;6141;49.092;8.516;2023-03-14T05:44:15;11.80;71.30
12156;DHT22;6141;49.092;8.516;2023-03-14T05:46:58;11.80;71.40
12156;DHT22;6141;49.092;8.516;2023-03-14T05:49:53;11.80;70.20
12156;DHT22;6141;49.092;8.516;2023-03-14T05:52:35;11.80;70.80
12156;DHT22;6141;49.092;8.516;2023-03-14T05:55:24;11.80;70.60
12156;DHT22;6141;49.092;8.516;2023-03-14T05:58:18;11.60;70.50
12156;DHT22;6141;49.092;8.516;2023-03-14T06:01:05;11.70;71.20
12156;DHT22;6141;49.092;8.516;2023-03-14T06:03:57;11.70;71.40
12156;DHT22;6141;49.092;8.516;2023-03-14T06:06:25;11.70;70.80
12156;DHT22;6141;49.092;8.516;2023-03-14T06:08:53;11.70;70.90
12156;DHT22;6141;49.092;8.516;2023-03-14T06:11:23;11.70;70.60
12156;DHT22;6141;49.092;8.516;2023-03-14T06:13:51;11.70;70.50
12156;DHT22;6141;49.092;8.516;2023-03-14T06:16:19;11.70;69.90
12156;DHT22;6141;49.092;8.516;2023-03-14T06:18:49;11.80;71.00
12156;DHT22;6141;49.092;8.516;2023-03-14T06:21:19;11.80;70.10
12156;DHT22;6141;49.092;8.516;2023-03-14T06:23:48;11.80;70.60
12156;DHT22;6141;49.092;8.516;2023-03-14T06:26:17;11.80;70.00
12156;DHT22;6141;49.092;8.516;2023-03-14T06:28:47;11.80;70.60
12156;DHT22;6141;49.092;8.516;2023-03-14T06:31:15;11.80;70.30
12156;DHT22;6141;49.092;8.516;2023-03-14T06:33:57;11.90;69.40
12156;DHT22;6141;49.092;8.516;2023-03-14T06:36:28;11.90;69.40
12156;DHT22;6141;49.092;8.516;2023-03-14T06:38:57;11.90;70.40
12156;DHT22;6141;49.092;8.516;2023-03-14T06:41:28;11.80;70.00
12156;DHT22;6141;49.092;8.516;2023-03-14T06:43:59;11.80;69.60
12156;DHT22;6141;49.092;8.516;2023-03-14T06:46:27;11.90;68.60
12156;DHT22;6141;49.092;8.516;2023-03-14T06:48:55;12.00;68.70
12156;DHT22;6141;49.092;8.516;2023-03-14T06:51:24;12.10;68.30
12156;DHT22;6141;49.092;8.516;2023-03-14T06:53:53;12.20;68.10
12156;DHT22;6141;49.092;8.516;2023-03-14T06:56:24;12.30;67.40
12156;DHT22;6141;49.092;8.516;2023-03-14T06:58:55;12.30;67.40
12156;DHT22;6141;49.092;8.516;2023-03-14T07:01:27;12.30;65.90
12156;DHT22;6141;49.092;8.516;2023-03-14T07:04:04;12.20;67.00
12156;DHT22;6141;49.092;8.516;2023-03-14T07:06:34;12.20;66.40
12156;DHT22;6141;49.092;8.516;2023-03-14T07:09:04;12.20;66.80
12156;DHT22;6141;49.092;8.516;2023-03-14T07:11:36;12.20;66.70
12156;DHT22;6141;49.092;8.516;2023-03-14T07:14:04;12.30;65.20
12156;DHT22;6141;49.092;8.516;2023-03-14T07:16:34;12.40;65.30
12156;DHT22;6141;49.092;8.516;2023-03-14T07:19:02;12.40;64.90
12156;DHT22;6141;49.092;8.516;2023-03-14T07:21:31;12.50;64.40
12156;DHT22;6141;49.092;8.516;2023-03-14T07:24:05;12.50;64.00
12156;DHT22;6141;49.092;8.516;2023-03-14T07:26:33;12.40;63.50
12156;DHT22;6141;49.092;8.516;2023-03-14T07:29:02;12.40;64.50
12156;DHT22;6141;49.092;8.516;2023-03-14T07:31:31;12.40;64.10
12156;DHT22;6141;49.092;8.516;2023-03-14T07:34:01;12.30;63.70
12156;DHT22;6141;49.092;8.516;2023-03-14T07:36:34;12.30;63.50
12156;DHT22;6141;49.092;8.516;2023-03-14T07:39:03;12.30;63.10
12156;DHT22;6141;49.092;8.516;2023-03-14T07:41:50;12.40;63.00
12156;DHT22;6141;49.092;8.516;2023-03-14T07:44:37;12.40;63.10
12156;DHT22;6141;49.092;8.516;2023-03-14T07:47:05;12.50;62.90
12156;DHT22;6141;49.092;8.516;2023-03-14T07:49:34;12.60;61.00
12156;DHT22;6141;49.092;8.516;2023-03-14T07:52:02;12.60;61.20
12156;DHT22;6141;49.092;8.516;2023-03-14T07:54:30;12.60;62.30
12156;DHT22;6141;49.092;8.516;2023-03-14T07:56:58;12.60;60.60
12156;DHT22;6141;49.092;8.516;2023-03-14T07:59:27;12.70;61.70
12156;DHT22;6141;49.092;8.516;2023-03-14T08:01:55;12.80;60.30
12156;DHT22;6141;49.092;8.516;2023-03-14T08:04:23;12.90;59.70
12156;DHT22;6141;49.092;8.516;2023-03-14T08:06:53;13.00;59.80
12156;DHT22;6141;49.092;8.516;2023-03-14T08:09:21;13.10;59.90
12156;DHT22;6141;49.092;8.516;2023-03-14T08:11:51;13.20;60.00
12156;DHT22;6141;49.092;8.516;2023-03-14T08:14:19;13.20;60.00
12156;DHT22;6141;49.092;8.516;2023-03-14T08:16:50;13.10;58.80
12156;DHT22;6141;49.092;8.516;2023-03-14T08:19:18;13.00;59.80
12156;DHT22;6141;49.092;8.516;2023-03-14T08:21:48;12.90;59.70
12156;DHT22;6141;49.092;8.516;2023-03-14T08:24:17;12.80;59.60
12156;DHT22;6141;49.092;8.516;2023-03-14T08:26:45;12.70;59.80
12156;DHT22;6141;49.092;8.516;2023-03-14T08:29:13;12.70;60.50
12156;DHT22;6141;49.092;8.516;2023-03-14T08:31:41;12.70;61.40
12156;DHT22;6141;49.092;8.516;2023-03-14T08:34:11;12.70;61.50
12156;DHT22;6141;49.092;8.516;2023-03-14T08:36:39;12.70;59.90
12156;DHT22;6141;49.092;8.516;2023-03-14T08:39:07;12.70;60.60
12156;DHT22;6141;49.092;8.516;2023-03-14T08:41:37;12.70;61.30
12156;DHT22;6141;49.092;8.516;2023-03-14T08:44:09;12.60;62.30
12156;DHT22;6141;49.092;8.516;2023-03-14T08:46:38;12.60;62.90
12156;DHT22;6141;49.092;8.516;2023-03-14T08:49:06;12.60;63.70
12156;DHT22;6141;49.092;8.516;2023-03-14T08:51:34;12.60;63.10
12156;DHT22;6141;49.092;8.516;2023-03-14T08:54:02;12.70;63.20
12156;DHT22;6141;49.092;8.516;2023-03-14T08:56:30;12.80;61.80
12156;DHT22;6141;49.092;8.516;2023-03-14T08:58:59;12.70;60.80
12156;DHT22;6141;49.092;8.516;2023-03-14T09:01:27;12.70;61.30
12156;DHT22;6141;49.092;8.516;2023-03-14T09:03:56;12.70;60.70
12156;DHT22;6141;49.092;8.516;2023-03-14T09:06:24;12.70;61.00
12156;DHT22;6141;49.092;8.516;2023-03-14T09:08:52;12.80;61.50
12156;DHT22;6141;49.092;8.516;2023-03-14T09:11:20;12.70;60.60
12156;DHT22;6141;49.092;8.516;2023-03-14T09:13:48;12.70;60.60
12156;DHT22;6141;49.092;8.516;2023-03-14T09:16:17;12.70;61.30
12156;DHT22;6141;49.092;8.516;2023-03-14T09:18:46;12.70;61.40
12156;DHT22;6141;49.092;8.516;2023-03-14T09:21:14;12.70;61.50
12156;DHT22;6141;49.092;8.516;2023-03-14T09:23:42;12.80;60.80
12156;DHT22;6141;49.092;8.516;2023-03-14T09:26:12;13.00;60.40
12156;DHT22;6141;49.092;8.516;2023-03-14T09:28:41;12.90;59.40
12156;DHT22;6141;49.092;8.516;2023-03-14T09:31:09;12.80;59.50
12156;DHT22;6141;49.092;8.516;2023-03-14T09:33:40;12.80;58.60
12156;DHT22;6141;49.092;8.516;2023-03-14T09:36:08;12.80;59.60
12156;DHT22;6141;49.092;8.516;2023-03-14T09:38:36;12.80;59.60
12156;DHT22;6141;49.092;8.516;2023-03-14T09:41:10;12.80;59.60
12156;DHT22;6141;49.092;8.516;2023-03-14T09:43:39;12.90;59.70
12156;DHT22;6141;49.092;8.516;2023-03-14T09:46:08;12.90;58.80
12156;DHT22;6141;49.092;8.516;2023-03-14T09:48:37;12.80;58.60
12156;DHT22;6141;49.092;8.516;2023-03-14T09:51:10;12.80;60.00
12156;DHT22;6141;49.092;8.516;2023-03-14T09:53:40;12.90;59.70
12156;DHT22;6141;49.092;8.516;2023-03-14T09:56:11;13.00;59.80
12156;DHT22;6141;49.092;8.516;2023-03-14T09:58:40;12.90;60.10
12156;DHT22;6141;49.092;8.516;2023-03-14T10:01:09;12.70;60.30
12156;DHT22;6141;49.092;8.516;2023-03-14T10:03:38;12.70;60.60
12156;DHT22;6141;49.092;8.516;2023-03-14T10:06:11;12.70;61.70
12156;DHT22;6141;49.092;8.516;2023-03-14T10:08:40;12.60;62.10
12156;DHT22;6141;49.092;8.516;2023-03-14T10:11:11;12.70;62.80
12156;DHT22;6141;49.092;8.516;2023-03-14T10:13:48;12.80;61.40
12156;DHT22;6141;49.092;8.516;2023-03-14T10:16:16;12.80;61.90
12156;DHT22;6141;49.092;8.516;2023-03-14T10:18:45;12.80;63.50
12156;DHT22;6141;49.092;8.516;2023-03-14T10:21:21;12.70;65.60
12156;DHT22;6141;49.092;8.516;2023-03-14T10:23:50;12.60;66.40
12156;DHT22;6141;49.092;8.516;2023-03-14T10:26:18;12.50;69.20
12156;DHT22;6141;49.092;8.516;2023-03-14T10:28:51;12.50;70.40
12156;DHT22;6141;49.092;8.516;2023-03-14T10:31:22;12.50;72.10
12156;DHT22;6141;49.092;8.516;2023-03-14T10:33:59;12.30;71.50
12156;DHT22;6141;49.092;8.516;2023-03-14T10:36:29;12.30;73.80
12156;DHT22;6141;49.092;8.516;2023-03-14T10:39:15;12.30;73.60
12156;DHT22;6141;49.092;8.516;2023-03-14T10:41:49;12.30;75.70
12156;DHT22;6141;49.092;8.516;2023-03-14T10:44:21;12.20;77.10
12156;DHT22;6141;49.092;8.516;2023-03-14T10:46:56;12.20;79.60
12156;DHT22;6141;49.092;8.516;2023-03-14T10:49:28;12.20;80.80
12156;DHT22;6141;49.092;8.516;2023-03-14T10:52:15;12.30;83.10
12156;DHT22;6141;49.092;8.516;2023-03-14T10:54:47;12.10;82.90
12156;DHT22;6141;49.092;8.516;2023-03-14T10:57:19;12.10;83.90
12156;DHT22;6141;49.092;8.516;2023-03-14T10:59:48;12.10;86.30
12156;DHT22;6141;49.092;8.516;2023-03-14T11:02:34;12.00;85.90
12156;DHT22;6141;49.092;8.516;2023-03-14T11:05:15;11.80;86.30
12156;DHT22;6141;49.092;8.516;2023-03-14T11:07:45;11.70;87.30
12156;DHT22;6141;49.092;8.516;2023-03-14T11:10:19;11.60;90.10
12156;DHT22;6141;49.092;8.516;2023-03-14T11:12:55;11.60;91.50
12156;DHT22;6141;49.092;8.516;2023-03-14T11:15:33;11.60;91.40
12156;DHT22;6141;49.092;8.516;2023-03-14T11:18:25;11.60;91.70
12156;DHT22;6141;49.092;8.516;2023-03-14T11:21:01;11.60;92.20
12156;DHT22;6141;49.092;8.516;2023-03-14T11:23:40;11.50;92.60
12156;DHT22;6141;49.092;8.516;2023-03-14T11:26:20;11.40;92.70
12156;DHT22;6141;49.092;8.516;2023-03-14T11:28:57;11.30;94.10
12156;DHT22;6141;49.092;8.516;2023-03-14T11:31:27;11.20;94.30
12156;DHT22;6141;49.092;8.516;2023-03-14T11:34:00;11.30;94.20
12156;DHT22;6141;49.092;8.516;2023-03-14T11:36:32;11.30;93.60
12156;DHT22;6141;49.092;8.516;2023-03-14T11:39:02;11.30;94.10
12156;DHT22;6141;49.092;8.516;2023-03-14T11:41:35;11.30;93.40
12156;DHT22;6141;49.092;8.516;2023-03-14T11:44:13;11.30;92.70
12156;DHT22;6141;49.092;8.516;2023-03-14T11:46:44;11.40;92.10
12156;DHT22;6141;49.092;8.516;2023-03-14T11:49:23;11.50;91.70
12156;DHT22;6141;49.092;8.516;2023-03-14T11:51:56;11.50;90.90
12156;DHT22;6141;49.092;8.516;2023-03-14T11:54:34;11.30;88.30
12156;DHT22;6141;49.092;8.516;2023-03-14T11:57:10;11.20;88.70
12156;DHT22;6141;49.092;8.516;2023-03-14T11:59:41;11.10;87.40
12156;DHT22;6141;49.092;8.516;2023-03-14T12:02:20;11.10;86.50
12156;DHT22;6141;49.092;8.516;2023-03-14T12:05:22;11.10;86.50
12156;DHT22;6141;49.092;8.516;2023-03-14T12:07:57;11.20;84.80
12156;DHT22;6141;49.092;8.516;2023-03-14T12:10:37;11.10;82.00
12156;DHT22;6141;49.092;8.516;2023-03-14T12:13:06;10.90;79.80
12156;DHT22;6141;49.092;8.516;2023-03-14T12:15:39;10.70;79.70
12156;DHT22;6141;49.092;8.516;2023-03-14T12:18:19;10.60;78.20
12156;DHT22;6141;49.092;8.516;2023-03-14T12:20:52;10.50;78.10
12156;DHT22;6141;49.092;8.516;2023-03-14T12:23:21;10.60;75.50
12156;DHT22;6141;49.092;8.516;2023-03-14T12:28:49;10.50;76.90
12156;DHT22;6141;49.092;8.516;2023-03-14T12:31:37;10.40;76.60
12156;DHT22;6141;49.092;8.516;2023-03-14T12:34:27;10.50;75.30
12156;DHT22;6141;49.092;8.516;2023-03-14T12:37:01;10.50;73.90
12156;DHT22;6141;49.092;8.516;2023-03-14T12:39:43;10.60;72.70
12156;DHT22;6141;49.092;8.516;2023-03-14T12:42:17;10.50;71.30
12156;DHT22;6141;49.092;8.516;2023-03-14T12:45:14;10.60;70.00
12156;DHT22;6141;49.092;8.516;2023-03-14T12:47:54;10.50;67.50
12156;DHT22;6141;49.092;8.516;2023-03-14T12:50:34;10.60;68.10
12156;DHT22;6141;49.092;8.516;2023-03-14T12:53:34;10.70;67.20
12156;DHT22;6141;49.092;8.516;2023-03-14T12:56:16;10.90;64.70
12156;DHT22;6141;49.092;8.516;2023-03-14T12:58:58;11.10;60.30
12156;DHT22;6141;49.092;8.516;2023-03-14T13:01:33;11.50;55.00
12156;DHT22;6141;49.092;8.516;2023-03-14T13:04:07;11.60;51.30
12156;DHT22;6141;49.092;8.516;2023-03-14T13:06:48;11.60;49.00
12156;DHT22;6141;49.092;8.516;2023-03-14T13:09:52;11.50;46.00
12156;DHT22;6141;49.092;8.516;2023-03-14T13:12:26;11.40;46.00
12156;DHT22;6141;49.092;8.516;2023-03-14T13:14:58;11.40;46.00
12156;DHT22;6141;49.092;8.516;2023-03-14T13:17:31;11.50;42.90
12156;DHT22;6141;49.092;8.516;2023-03-14T13:20:11;11.60;42.20
12156;DHT22;6141;49.092;8.516;2023-03-14T13:22:46;11.60;38.10
12156;DHT22;6141;49.092;8.516;2023-03-14T13:25:15;11.50;35.80
12156;DHT22;6141;49.092;8.516;2023-03-14T13:27:45;11.50;31.40
12156;DHT22;6141;49.092;8.516;2023-03-14T13:30:26;11.30;31.70
12156;DHT22;6141;49.092;8.516;2023-03-14T13:32:56;11.20;33.00
12156;DHT22;6141;49.092;8.516;2023-03-14T13:35:26;11.00;33.10
12156;DHT22;6141;49.092;8.516;2023-03-14T13:37:57;11.00;33.00
12156;DHT22;6141;49.092;8.516;2023-03-14T13:40:38;11.00;32.10
12156;DHT22;6141;49.092;8.516;2023-03-14T13:43:14;10.90;31.00
12156;DHT22;6141;49.092;8.516;2023-03-14T13:45:50;10.90;32.90
12156;DHT22;6141;49.092;8.516;2023-03-14T13:48:21;11.00;33.40
12156;DHT22;6141;49.092;8.516;2023-03-14T13:50:53;11.10;31.10
12156;DHT22;6141;49.092;8.516;2023-03-14T13:53:22;11.00;30.40
12156;DHT22;6141;49.092;8.516;2023-03-14T13:55:50;10.90;30.10
12156;DHT22;6141;49.092;8.516;2023-03-14T13:58:27;10.70;29.60
12156;DHT22;6141;49.092;8.516;2023-03-14T14:01:10;10.60;28.60
12156;DHT22;6141;49.092;8.516;2023-03-14T14:03:42;10.60;29.80
12156;DHT22;6141;49.092;8.516;2023-03-14T14:06:22;10.60;29.40
12156;DHT22;6141;49.092;8.516;2023-03-14T14:08:51;10.70;28.10
12156;DHT22;6141;49.092;8.516;2023-03-14T14:11:27;10.70;30.00
12156;DHT22;6141;49.092;8.516;2023-03-14T14:14:17;10.70;28.50
12156;DHT22;6141;49.092;8.516;2023-03-14T14:16:47;10.80;29.20
12156;DHT22;6141;49.092;8.516;2023-03-14T14:19:22;10.90;27.80
12156;DHT22;6141;49.092;8.516;2023-03-14T14:21:52;11.20;27.60
12156;DHT22;6141;49.092;8.516;2023-03-14T14:24:23;11.20;26.20
12156;DHT22;6141;49.092;8.516;2023-03-14T14:26:54;11.20;26.20
12156;DHT22;6141;49.092;8.516;2023-03-14T14:29:26;11.20;27.60
12156;DHT22;6141;49.092;8.516;2023-03-14T14:32:08;11.10;25.40
12156;DHT22;6141;49.092;8.516;2023-03-14T14:34:42;11.00;27.40
12156;DHT22;6141;49.092;8.516;2023-03-14T14:37:21;11.00;25.70
12156;DHT22;6141;49.092;8.516;2023-03-14T14:39:55;11.00;26.60
12156;DHT22;6141;49.092;8.516;2023-03-14T14:42:26;10.90;26.00
12156;DHT22;6141;49.092;8.516;2023-03-14T14:44:56;11.00;26.60
12156;DHT22;6141;49.092;8.516;2023-03-14T14:47:26;11.40;27.60
12156;DHT22;6141;49.092;8.516;2023-03-14T14:50:00;11.30;26.70
12156;DHT22;6141;49.092;8.516;2023-03-14T14:52:36;11.30;26.70
12156;DHT22;6141;49.092;8.516;2023-03-14T14:55:16;11.30;26.40
12156;DHT22;6141;49.092;8.516;2023-03-14T14:57:50;11.60;26.80
12156;DHT22;6141;49.092;8.516;2023-03-14T15:00:21;11.80;25.70
12156;DHT22;6141;49.092;8.516;2023-03-14T15:02:52;12.00;25.10
12156;DHT22;6141;49.092;8.516;2023-03-14T15:05:25;11.90;24.70
12156;DHT22;6141;49.092;8.516;2023-03-14T15:07:53;12.00;25.80
12156;DHT22;6141;49.092;8.516;2023-03-14T15:10:23;11.90;24.60
12156;DHT22;6141;49.092;8.516;2023-03-14T15:12:52;11.90;25.60
12156;DHT22;6141;49.092;8.516;2023-03-14T15:15:20;11.90;25.00
12156;DHT22;6141;49.092;8.516;2023-03-14T15:17:49;11.80;24.20
12156;DHT22;6141;49.092;8.516;2023-03-14T15:20:18;11.50;25.50
12156;DHT22;6141;49.092;8.516;2023-03-14T15:22:47;11.50;25.50
12156;DHT22;6141;49.092;8.516;2023-03-14T15:25:16;11.30;26.50
12156;DHT22;6141;49.092;8.516;2023-03-14T15:28:13;11.30;26.70
12156;DHT22;6141;49.092;8.516;2023-03-14T15:30:41;11.50;27.30
12156;DHT22;6141;49.092;8.516;2023-03-14T15:33:10;11.50;26.60
12156;DHT22;6141;49.092;8.516;2023-03-14T15:35:38;11.50;26.20
12156;DHT22;6141;49.092;8.516;2023-03-14T15:38:12;11.50;27.00
12156;DHT22;6141;49.092;8.516;2023-03-14T15:40:40;11.50;26.70
12156;DHT22;6141;49.092;8.516;2023-03-14T15:43:09;11.50;26.40
12156;DHT22;6141;49.092;8.516;2023-03-14T15:45:37;11.40;27.00
12156;DHT22;6141;49.092;8.516;2023-03-14T15:48:13;11.30;27.60
12156;DHT22;6141;49.092;8.516;2023-03-14T15:50:42;11.10;27.00
12156;DHT22;6141;49.092;8.516;2023-03-14T15:53:13;11.00;27.40
12156;DHT22;6141;49.092;8.516;2023-03-14T15:55:41;11.00;28.20
12156;DHT22;6141;49.092;8.516;2023-03-14T15:58:15;10.90;28.50
12156;DHT22;6141;49.092;8.516;2023-03-14T16:00:48;11.00;29.00
12156;DHT22;6141;49.092;8.516;2023-03-14T16:03:17;11.10;28.60
12156;DHT22;6141;49.092;8.516;2023-03-14T16:05:45;11.00;28.80
12156;DHT22;6141;49.092;8.516;2023-03-14T16:08:15;11.00;29.00
12156;DHT22;6141;49.092;8.516;2023-03-14T16:10:44;10.90;28.50
12156;DHT22;6141;49.092;8.516;2023-03-14T16:13:13;10.90;29.00
12156;DHT22;6141;49.092;8.516;2023-03-14T16:15:41;10.80;29.00
12156;DHT22;6141;49.092;8.516;2023-03-14T16:18:12;10.80;29.10
12156;DHT22;6141;49.092;8.516;2023-03-14T16:20:52;10.90;29.50
12156;DHT22;6141;49.092;8.516;2023-03-14T16:23:23;10.90;29.30
12156;DHT22;6141;49.092;8.516;2023-03-14T16:25:52;10.90;29.80